sensor_id;sensor_type;location;lat;lon;timestamp;P1;durP1;ratioP1;P2;durP2;ratioP2
40290;SDS011;26000;48.304;13.626;2023-04-15T00:01:18;7.15;;;5.72;;
40290;SDS011;26000;48.304;13.626;2023-04-15T00:03:44;8.25;;;5.95;;
40290;SDS011;26000;48.304;13.626;2023-04-15T00:06:10;6.20;;;5.60;;
40290;SDS011;26000;48.304;13.626;2023-04-15T00:08:36;6.45;;;5.65;;
40290;SDS011;26000;48.304;13.626;2023-04-15T00:11:02;6.68;;;5.97;;
40290;SDS011;26000;48.304;13.626;2023-04-15T00:13:29;8.13;;;5.95;;
40290;SDS011;26000;48.304;13.626;2023-04-15T00:15:56;6.22;;;5.63;;
40290;SDS011;26000;48.304;13.626;2023-04-15T00:18:22;6.90;;;5.68;;
40290;SDS011;26000;48.304;13.626;2023-04-15T00:20:48;8.13;;;6.03;;
40290;SDS011;26000;48.304;13.626;2023-04-15T00:23:14;7.05;;;5.93;;
40290;SDS011;26000;48.304;13.626;2023-04-15T00:25:39;7.82;;;5.47;;
40290;SDS011;26000;48.304;13.626;2023-04-15T00:28:05;6.82;;;5.93;;
40290;SDS011;26000;48.304;13.626;2023-04-15T00:30:31;7.07;;;6.38;;
40290;SDS011;26000;48.304;13.626;2023-04-15T00:32:57;7.57;;;6.78;;
40290;SDS011;26000;48.304;13.626;2023-04-15T00:35:23;7.03;;;6.22;;
40290;SDS011;26000;48.304;13.626;2023-04-15T00:37:48;7.03;;;6.32;;
40290;SDS011;26000;48.304;13.626;2023-04-15T00:40:15;8.45;;;6.68;;
40290;SDS011;26000;48.304;13.626;2023-04-15T00:42:43;7.32;;;6.40;;
40290;SDS011;26000;48.304;13.626;2023-04-15T00:45:09;8.18;;;7.20;;
40290;SDS011;26000;48.304;13.626;2023-04-15T00:47:35;9.95;;;7.63;;
40290;SDS011;26000;48.304;13.626;2023-04-15T00:50:03;8.70;;;7.80;;
40290;SDS011;26000;48.304;13.626;2023-04-15T00:52:29;8.98;;;7.85;;
40290;SDS011;26000;48.304;13.626;2023-04-15T00:54:55;8.90;;;7.57;;
40290;SDS011;26000;48.304;13.626;2023-04-15T00:57:20;9.65;;;7.55;;
40290;SDS011;26000;48.304;13.626;2023-04-15T00:59:46;9.00;;;7.68;;
40290;SDS011;26000;48.304;13.626;2023-04-15T01:02:12;7.80;;;6.97;;
40290;SDS011;26000;48.304;13.626;2023-04-15T01:04:38;6.97;;;6.28;;
40290;SDS011;26000;48.304;13.626;2023-04-15T01:07:05;7.07;;;6.30;;
40290;SDS011;26000;48.304;13.626;2023-04-15T01:09:31;6.90;;;5.63;;
40290;SDS011;26000;48.304;13.626;2023-04-15T01:11:57;6.90;;;6.20;;
40290;SDS011;26000;48.304;13.626;2023-04-15T01:14:23;5.88;;;5.28;;
40290;SDS011;26000;48.304;13.626;2023-04-15T01:16:49;8.18;;;6.18;;
40290;SDS011;26000;48.304;13.626;2023-04-15T01:19:16;7.30;;;6.03;;
40290;SDS011;26000;48.304;13.626;2023-04-15T01:21:43;6.88;;;6.18;;
40290;SDS011;26000;48.304;13.626;2023-04-15T01:24:09;6.80;;;5.80;;
40290;SDS011;26000;48.304;13.626;2023-04-15T01:26:37;8.45;;;7.00;;
40290;SDS011;26000;48.304;13.626;2023-04-15T01:29:03;9.98;;;7.70;;
40290;SDS011;26000;48.304;13.626;2023-04-15T01:31:29;8.50;;;7.60;;
40290;SDS011;26000;48.304;13.626;2023-04-15T01:33:55;11.82;;;8.15;;
40290;SDS011;26000;48.304;13.626;2023-04-15T01:36:20;9.95;;;8.13;;
40290;SDS011;26000;48.304;13.626;2023-04-15T01:38:46;9.75;;;8.15;;
40290;SDS011;26000;48.304;13.626;2023-04-15T01:41:12;10.82;;;8.68;;
40290;SDS011;26000;48.304;13.626;2023-04-15T01:43:38;12.77;;;9.00;;
40290;SDS011;26000;48.304;13.626;2023-04-15T01:46:04;11.57;;;9.35;;
40290;SDS011;26000;48.304;13.626;2023-04-15T01:48:30;13.25;;;11.10;;
40290;SDS011;26000;48.304;13.626;2023-04-15T01:50:56;15.02;;;11.88;;
40290;SDS011;26000;48.304;13.626;2023-04-15T01:53:25;15.05;;;11.55;;
40290;SDS011;26000;48.304;13.626;2023-04-15T01:55:51;13.55;;;10.93;;
40290;SDS011;26000;48.304;13.626;2023-04-15T01:58:17;13.63;;;10.68;;
40290;SDS011;26000;48.304;13.626;2023-04-15T02:00:43;12.77;;;9.90;;
40290;SDS011;26000;48.304;13.626;2023-04-15T02:03:09;12.02;;;10.13;;
40290;SDS011;26000;48.304;13.626;2023-04-15T02:05:35;11.73;;;10.25;;
40290;SDS011;26000;48.304;13.626;2023-04-15T02:08:00;12.20;;;9.60;;
40290;SDS011;26000;48.304;13.626;2023-04-15T02:10:26;11.43;;;9.45;;
40290;SDS011;26000;48.304;13.626;2023-04-15T02:12:52;11.10;;;8.43;;
40290;SDS011;26000;48.304;13.626;2023-04-15T02:15:18;10.82;;;8.65;;
40290;SDS011;26000;48.304;13.626;2023-04-15T02:17:44;10.30;;;7.97;;
40290;SDS011;26000;48.304;13.626;2023-04-15T02:20:14;11.10;;;8.27;;
40290;SDS011;26000;48.304;13.626;2023-04-15T02:22:42;10.02;;;8.65;;
40290;SDS011;26000;48.304;13.626;2023-04-15T02:25:07;10.18;;;7.60;;
40290;SDS011;26000;48.304;13.626;2023-04-15T02:27:34;8.68;;;7.35;;
40290;SDS011;26000;48.304;13.626;2023-04-15T02:30:00;9.15;;;7.40;;
40290;SDS011;26000;48.304;13.626;2023-04-15T02:32:26;9.25;;;8.20;;
40290;SDS011;26000;48.304;13.626;2023-04-15T02:34:52;10.27;;;7.85;;
40290;SDS011;26000;48.304;13.626;2023-04-15T02:37:18;9.50;;;8.27;;
40290;SDS011;26000;48.304;13.626;2023-04-15T02:39:44;11.15;;;7.93;;
40290;SDS011;26000;48.304;13.626;2023-04-15T02:42:10;10.95;;;8.95;;
40290;SDS011;26000;48.304;13.626;2023-04-15T02:44:37;9.55;;;7.85;;
40290;SDS011;26000;48.304;13.626;2023-04-15T02:47:02;10.80;;;7.60;;
40290;SDS011;26000;48.304;13.626;2023-04-15T02:49:31;7.72;;;6.90;;
40290;SDS011;26000;48.304;13.626;2023-04-15T02:51:56;7.65;;;6.85;;
40290;SDS011;26000;48.304;13.626;2023-04-15T02:54:24;7.63;;;6.28;;
40290;SDS011;26000;48.304;13.626;2023-04-15T02:56:52;9.32;;;7.53;;
40290;SDS011;26000;48.304;13.626;2023-04-15T02:59:20;9.75;;;8.05;;
40290;SDS011;26000;48.304;13.626;2023-04-15T03:01:45;9.45;;;7.50;;
40290;SDS011;26000;48.304;13.626;2023-04-15T03:04:11;8.45;;;7.47;;
40290;SDS011;26000;48.304;13.626;2023-04-15T03:06:37;7.88;;;6.72;;
40290;SDS011;26000;48.304;13.626;2023-04-15T03:09:03;9.82;;;7.53;;
40290;SDS011;26000;48.304;13.626;2023-04-15T03:11:28;10.15;;;8.02;;
40290;SDS011;26000;48.304;13.626;2023-04-15T03:13:55;8.85;;;7.25;;
40290;SDS011;26000;48.304;13.626;2023-04-15T03:16:21;6.78;;;6.05;;
40290;SDS011;26000;48.304;13.626;2023-04-15T03:18:46;8.52;;;6.55;;
40290;SDS011;26000;48.304;13.626;2023-04-15T03:21:12;6.93;;;6.15;;
40290;SDS011;26000;48.304;13.626;2023-04-15T03:23:38;7.38;;;6.10;;
40290;SDS011;26000;48.304;13.626;2023-04-15T03:26:03;9.20;;;6.50;;
40290;SDS011;26000;48.304;13.626;2023-04-15T03:28:29;10.05;;;6.45;;
40290;SDS011;26000;48.304;13.626;2023-04-15T03:30:56;6.75;;;5.85;;
40290;SDS011;26000;48.304;13.626;2023-04-15T03:33:22;8.00;;;6.72;;
40290;SDS011;26000;48.304;13.626;2023-04-15T03:35:48;7.22;;;6.30;;
40290;SDS011;26000;48.304;13.626;2023-04-15T03:38:15;6.80;;;5.80;;
40290;SDS011;26000;48.304;13.626;2023-04-15T03:40:40;8.43;;;6.28;;
40290;SDS011;26000;48.304;13.626;2023-04-15T03:43:06;7.20;;;6.32;;
40290;SDS011;26000;48.304;13.626;2023-04-15T03:45:32;7.03;;;5.82;;
40290;SDS011;26000;48.304;13.626;2023-04-15T03:47:57;6.88;;;5.20;;
40290;SDS011;26000;48.304;13.626;2023-04-15T03:50:23;6.45;;;4.93;;
40290;SDS011;26000;48.304;13.626;2023-04-15T03:52:49;5.00;;;4.50;;
40290;SDS011;26000;48.304;13.626;2023-04-15T03:55:14;4.18;;;3.78;;
40290;SDS011;26000;48.304;13.626;2023-04-15T03:57:40;4.20;;;3.80;;
40290;SDS011;26000;48.304;13.626;2023-04-15T04:00:06;4.60;;;4.05;;
40290;SDS011;26000;48.304;13.626;2023-04-15T04:02:34;4.45;;;3.83;;
40290;SDS011;26000;48.304;13.626;2023-04-15T04:05:00;4.00;;;3.60;;
40290;SDS011;26000;48.304;13.626;2023-04-15T04:07:25;3.95;;;3.55;;
40290;SDS011;26000;48.304;13.626;2023-04-15T04:09:51;4.57;;;3.70;;
40290;SDS011;26000;48.304;13.626;2023-04-15T04:12:17;5.00;;;4.50;;
40290;SDS011;26000;48.304;13.626;2023-04-15T04:14:42;5.05;;;4.55;;
40290;SDS011;26000;48.304;13.626;2023-04-15T04:17:08;5.18;;;4.65;;
40290;SDS011;26000;48.304;13.626;2023-04-15T04:19:34;6.40;;;5.38;;
40290;SDS011;26000;48.304;13.626;2023-04-15T04:22:00;6.05;;;5.40;;
40290;SDS011;26000;48.304;13.626;2023-04-15T04:24:26;5.28;;;4.78;;
40290;SDS011;26000;48.304;13.626;2023-04-15T04:26:51;9.07;;;5.60;;
40290;SDS011;26000;48.304;13.626;2023-04-15T04:29:17;8.05;;;5.25;;
40290;SDS011;26000;48.304;13.626;2023-04-15T04:31:43;6.95;;;6.05;;
40290;SDS011;26000;48.304;13.626;2023-04-15T04:34:08;7.88;;;6.07;;
40290;SDS011;26000;48.304;13.626;2023-04-15T04:36:34;8.15;;;6.03;;
40290;SDS011;26000;48.304;13.626;2023-04-15T04:38:59;9.18;;;7.03;;
40290;SDS011;26000;48.304;13.626;2023-04-15T04:41:25;7.95;;;6.65;;
40290;SDS011;26000;48.304;13.626;2023-04-15T04:43:51;8.27;;;6.88;;
40290;SDS011;26000;48.304;13.626;2023-04-15T04:46:16;7.30;;;6.47;;
40290;SDS011;26000;48.304;13.626;2023-04-15T04:48:42;9.57;;;5.95;;
40290;SDS011;26000;48.304;13.626;2023-04-15T04:51:08;7.28;;;5.55;;
40290;SDS011;26000;48.304;13.626;2023-04-15T04:53:34;5.95;;;4.80;;
40290;SDS011;26000;48.304;13.626;2023-04-15T04:56:01;5.72;;;5.13;;
40290;SDS011;26000;48.304;13.626;2023-04-15T04:58:27;5.80;;;5.20;;
40290;SDS011;26000;48.304;13.626;2023-04-15T05:00:52;6.35;;;5.50;;
40290;SDS011;26000;48.304;13.626;2023-04-15T05:03:18;5.25;;;4.75;;
40290;SDS011;26000;48.304;13.626;2023-04-15T05:05:44;4.95;;;4.45;;
40290;SDS011;26000;48.304;13.626;2023-04-15T05:08:10;4.47;;;4.05;;
40290;SDS011;26000;48.304;13.626;2023-04-15T05:10:36;4.47;;;3.78;;
40290;SDS011;26000;48.304;13.626;2023-04-15T05:13:01;4.18;;;3.78;;
40290;SDS011;26000;48.304;13.626;2023-04-15T05:15:27;4.55;;;3.92;;
40290;SDS011;26000;48.304;13.626;2023-04-15T05:17:53;4.25;;;3.83;;
40290;SDS011;26000;48.304;13.626;2023-04-15T05:20:20;4.82;;;4.28;;
40290;SDS011;26000;48.304;13.626;2023-04-15T05:22:45;4.30;;;3.90;;
40290;SDS011;26000;48.304;13.626;2023-04-15T05:25:11;3.90;;;3.33;;
40290;SDS011;26000;48.304;13.626;2023-04-15T05:27:36;3.67;;;3.38;;
40290;SDS011;26000;48.304;13.626;2023-04-15T05:30:02;3.97;;;3.45;;
40290;SDS011;26000;48.304;13.626;2023-04-15T05:32:28;4.90;;;4.20;;
40290;SDS011;26000;48.304;13.626;2023-04-15T05:34:54;4.18;;;3.70;;
40290;SDS011;26000;48.304;13.626;2023-04-15T05:37:20;4.72;;;3.58;;
40290;SDS011;26000;48.304;13.626;2023-04-15T05:39:46;3.30;;;3.00;;
40290;SDS011;26000;48.304;13.626;2023-04-15T05:42:12;3.38;;;3.08;;
40290;SDS011;26000;48.304;13.626;2023-04-15T05:44:38;3.95;;;3.10;;
40290;SDS011;26000;48.304;13.626;2023-04-15T05:47:03;3.85;;;3.10;;
40290;SDS011;26000;48.304;13.626;2023-04-15T05:49:29;3.72;;;3.33;;
40290;SDS011;26000;48.304;13.626;2023-04-15T05:51:55;4.03;;;3.40;;
40290;SDS011;26000;48.304;13.626;2023-04-15T05:54:21;4.35;;;3.95;;
40290;SDS011;26000;48.304;13.626;2023-04-15T05:56:47;6.10;;;3.90;;
40290;SDS011;26000;48.304;13.626;2023-04-15T05:59:13;4.15;;;3.70;;
40290;SDS011;26000;48.304;13.626;2023-04-15T06:01:39;4.72;;;3.90;;
40290;SDS011;26000;48.304;13.626;2023-04-15T06:04:04;4.97;;;3.70;;
40290;SDS011;26000;48.304;13.626;2023-04-15T06:06:30;4.70;;;3.78;;
40290;SDS011;26000;48.304;13.626;2023-04-15T06:08:56;4.57;;;3.90;;
40290;SDS011;26000;48.304;13.626;2023-04-15T06:11:22;3.90;;;3.50;;
40290;SDS011;26000;48.304;13.626;2023-04-15T06:13:48;4.57;;;4.13;;
40290;SDS011;26000;48.304;13.626;2023-04-15T06:16:14;5.03;;;4.15;;
40290;SDS011;26000;48.304;13.626;2023-04-15T06:18:39;5.40;;;3.90;;
40290;SDS011;26000;48.304;13.626;2023-04-15T06:21:05;5.00;;;3.90;;
40290;SDS011;26000;48.304;13.626;2023-04-15T06:23:33;5.35;;;3.65;;
40290;SDS011;26000;48.304;13.626;2023-04-15T06:26:00;4.35;;;3.85;;
40290;SDS011;26000;48.304;13.626;2023-04-15T06:28:25;4.20;;;3.80;;
40290;SDS011;26000;48.304;13.626;2023-04-15T06:30:51;4.47;;;3.78;;
40290;SDS011;26000;48.304;13.626;2023-04-15T06:33:17;4.50;;;4.10;;
40290;SDS011;26000;48.304;13.626;2023-04-15T06:35:43;5.43;;;4.93;;
40290;SDS011;26000;48.304;13.626;2023-04-15T06:38:09;5.28;;;4.53;;
40290;SDS011;26000;48.304;13.626;2023-04-15T06:40:34;4.38;;;3.97;;
40290;SDS011;26000;48.304;13.626;2023-04-15T06:43:00;5.05;;;4.18;;
40290;SDS011;26000;48.304;13.626;2023-04-15T06:45:26;5.05;;;3.42;;
40290;SDS011;26000;48.304;13.626;2023-04-15T06:47:52;4.18;;;3.42;;
40290;SDS011;26000;48.304;13.626;2023-04-15T06:50:17;3.47;;;3.10;;
40290;SDS011;26000;48.304;13.626;2023-04-15T06:52:43;3.33;;;3.00;;
40290;SDS011;26000;48.304;13.626;2023-04-15T06:55:08;3.17;;;2.88;;
40290;SDS011;26000;48.304;13.626;2023-04-15T06:57:34;3.20;;;2.75;;
40290;SDS011;26000;48.304;13.626;2023-04-15T07:00:00;3.22;;;2.72;;
40290;SDS011;26000;48.304;13.626;2023-04-15T07:02:26;3.30;;;3.00;;
40290;SDS011;26000;48.304;13.626;2023-04-15T07:04:51;3.28;;;2.97;;
40290;SDS011;26000;48.304;13.626;2023-04-15T07:07:17;4.72;;;3.40;;
40290;SDS011;26000;48.304;13.626;2023-04-15T07:09:43;4.18;;;3.40;;
40290;SDS011;26000;48.304;13.626;2023-04-15T07:12:08;4.05;;;3.05;;
40290;SDS011;26000;48.304;13.626;2023-04-15T07:14:34;3.08;;;2.75;;
40290;SDS011;26000;48.304;13.626;2023-04-15T07:17:00;2.88;;;2.60;;
40290;SDS011;26000;48.304;13.626;2023-04-15T07:19:26;2.95;;;2.55;;
40290;SDS011;26000;48.304;13.626;2023-04-15T07:21:51;4.03;;;2.90;;
40290;SDS011;26000;48.304;13.626;2023-04-15T07:24:17;3.20;;;2.83;;
40290;SDS011;26000;48.304;13.626;2023-04-15T07:26:44;3.00;;;2.70;;
40290;SDS011;26000;48.304;13.626;2023-04-15T07:29:10;3.10;;;2.80;;
40290;SDS011;26000;48.304;13.626;2023-04-15T07:31:36;4.13;;;3.05;;
40290;SDS011;26000;48.304;13.626;2023-04-15T07:34:02;3.38;;;3.08;;
40290;SDS011;26000;48.304;13.626;2023-04-15T07:36:29;3.45;;;3.08;;
40290;SDS011;26000;48.304;13.626;2023-04-15T07:38:54;2.85;;;2.58;;
40290;SDS011;26000;48.304;13.626;2023-04-15T07:41:22;6.40;;;3.78;;
40290;SDS011;26000;48.304;13.626;2023-04-15T07:43:47;4.28;;;3.88;;
40290;SDS011;26000;48.304;13.626;2023-04-15T07:46:13;3.13;;;2.70;;
40290;SDS011;26000;48.304;13.626;2023-04-15T07:48:39;2.72;;;2.50;;
40290;SDS011;26000;48.304;13.626;2023-04-15T07:51:05;3.30;;;2.72;;
40290;SDS011;26000;48.304;13.626;2023-04-15T07:53:32;2.78;;;2.47;;
40290;SDS011;26000;48.304;13.626;2023-04-15T07:55:58;2.95;;;2.33;;
40290;SDS011;26000;48.304;13.626;2023-04-15T07:58:23;8.43;;;5.78;;
40290;SDS011;26000;48.304;13.626;2023-04-15T08:00:52;7.40;;;4.93;;
40290;SDS011;26000;48.304;13.626;2023-04-15T08:03:20;2.80;;;2.45;;
40290;SDS011;26000;48.304;13.626;2023-04-15T08:05:46;2.65;;;2.30;;
40290;SDS011;26000;48.304;13.626;2023-04-15T08:08:12;2.72;;;2.10;;
40290;SDS011;26000;48.304;13.626;2023-04-15T08:10:38;2.38;;;2.17;;
40290;SDS011;26000;48.304;13.626;2023-04-15T08:13:05;2.33;;;2.10;;
40290;SDS011;26000;48.304;13.626;2023-04-15T08:15:30;2.38;;;2.17;;
40290;SDS011;26000;48.304;13.626;2023-04-15T08:17:57;2.30;;;2.10;;
40290;SDS011;26000;48.304;13.626;2023-04-15T08:20:24;3.25;;;2.50;;
40290;SDS011;26000;48.304;13.626;2023-04-15T08:22:50;3.83;;;3.03;;
40290;SDS011;26000;48.304;13.626;2023-04-15T08:25:16;4.47;;;3.95;;
40290;SDS011;26000;48.304;13.626;2023-04-15T08:27:43;3.42;;;2.90;;
40290;SDS011;26000;48.304;13.626;2023-04-15T08:30:09;3.50;;;2.90;;
40290;SDS011;26000;48.304;13.626;2023-04-15T08:32:34;3.22;;;2.92;;
40290;SDS011;26000;48.304;13.626;2023-04-15T08:35:00;2.90;;;2.40;;
40290;SDS011;26000;48.304;13.626;2023-04-15T08:37:25;5.13;;;2.70;;
40290;SDS011;26000;48.304;13.626;2023-04-15T08:39:51;3.03;;;2.72;;
40290;SDS011;26000;48.304;13.626;2023-04-15T08:42:18;3.13;;;2.80;;
40290;SDS011;26000;48.304;13.626;2023-04-15T08:44:50;2.90;;;2.70;;
40290;SDS011;26000;48.304;13.626;2023-04-15T08:47:15;3.00;;;2.67;;
40290;SDS011;26000;48.304;13.626;2023-04-15T08:49:46;4.75;;;3.00;;
40290;SDS011;26000;48.304;13.626;2023-04-15T08:52:17;3.50;;;3.20;;
40290;SDS011;26000;48.304;13.626;2023-04-15T08:54:44;3.33;;;2.85;;
40290;SDS011;26000;48.304;13.626;2023-04-15T08:57:10;3.35;;;3.05;;
40290;SDS011;26000;48.304;13.626;2023-04-15T08:59:36;3.20;;;2.90;;
40290;SDS011;26000;48.304;13.626;2023-04-15T09:02:02;3.17;;;2.88;;
40290;SDS011;26000;48.304;13.626;2023-04-15T09:04:28;3.03;;;2.72;;
40290;SDS011;26000;48.304;13.626;2023-04-15T09:06:54;3.22;;;2.90;;
40290;SDS011;26000;48.304;13.626;2023-04-15T09:09:22;3.50;;;3.15;;
40290;SDS011;26000;48.304;13.626;2023-04-15T09:11:48;3.20;;;2.90;;
40290;SDS011;26000;48.304;13.626;2023-04-15T09:14:15;3.97;;;3.50;;
40290;SDS011;26000;48.304;13.626;2023-04-15T09:17:00;3.70;;;3.40;;
40290;SDS011;26000;48.304;13.626;2023-04-15T09:19:27;4.40;;;3.33;;
40290;SDS011;26000;48.304;13.626;2023-04-15T09:21:54;3.65;;;3.28;;
40290;SDS011;26000;48.304;13.626;2023-04-15T09:24:23;2.97;;;2.75;;
40290;SDS011;26000;48.304;13.626;2023-04-15T09:26:51;3.85;;;3.20;;
40290;SDS011;26000;48.304;13.626;2023-04-15T09:29:23;3.70;;;3.30;;
40290;SDS011;26000;48.304;13.626;2023-04-15T09:31:49;7.30;;;6.20;;
40290;SDS011;26000;48.304;13.626;2023-04-15T09:34:15;4.80;;;4.40;;
40290;SDS011;26000;48.304;13.626;2023-04-15T09:39:15;3.30;;;3.00;;
40290;SDS011;26000;48.304;13.626;2023-04-15T09:41:41;3.72;;;3.42;;
40290;SDS011;26000;48.304;13.626;2023-04-15T09:44:20;3.65;;;3.28;;
40290;SDS011;26000;48.304;13.626;2023-04-15T09:46:50;3.85;;;3.47;;
40290;SDS011;26000;48.304;13.626;2023-04-15T09:49:15;3.67;;;3.38;;
40290;SDS011;26000;48.304;13.626;2023-04-15T09:51:42;4.50;;;3.78;;
40290;SDS011;26000;48.304;13.626;2023-04-15T09:54:08;4.00;;;3.60;;
40290;SDS011;26000;48.304;13.626;2023-04-15T09:56:34;4.93;;;3.45;;
40290;SDS011;26000;48.304;13.626;2023-04-15T09:59:07;3.45;;;3.15;;
40290;SDS011;26000;48.304;13.626;2023-04-15T10:01:33;3.40;;;3.10;;
40290;SDS011;26000;48.304;13.626;2023-04-15T10:04:01;5.47;;;3.60;;
40290;SDS011;26000;48.304;13.626;2023-04-15T10:06:28;4.63;;;4.22;;
40290;SDS011;26000;48.304;13.626;2023-04-15T10:08:55;4.80;;;4.30;;
40290;SDS011;26000;48.304;13.626;2023-04-15T10:11:22;6.63;;;4.88;;
40290;SDS011;26000;48.304;13.626;2023-04-15T10:13:49;4.75;;;4.05;;
40290;SDS011;26000;48.304;13.626;2023-04-15T10:16:16;4.38;;;3.55;;
40290;SDS011;26000;48.304;13.626;2023-04-15T10:18:45;3.85;;;3.47;;
40290;SDS011;26000;48.304;13.626;2023-04-15T10:21:14;4.15;;;3.72;;
40290;SDS011;26000;48.304;13.626;2023-04-15T10:23:42;3.88;;;3.47;;
40290;SDS011;26000;48.304;13.626;2023-04-15T10:26:09;3.65;;;3.35;;
40290;SDS011;26000;48.304;13.626;2023-04-15T10:28:38;3.42;;;3.13;;
40290;SDS011;26000;48.304;13.626;2023-04-15T10:31:04;3.70;;;3.40;;
40290;SDS011;26000;48.304;13.626;2023-04-15T10:33:31;3.92;;;3.53;;
40290;SDS011;26000;48.304;13.626;2023-04-15T10:35:57;4.10;;;3.42;;
40290;SDS011;26000;48.304;13.626;2023-04-15T10:38:34;3.80;;;3.50;;
40290;SDS011;26000;48.304;13.626;2023-04-15T10:41:20;4.03;;;3.63;;
40290;SDS011;26000;48.304;13.626;2023-04-15T10:44:00;4.25;;;3.63;;
40290;SDS011;26000;48.304;13.626;2023-04-15T10:49:08;4.97;;;3.30;;
40290;SDS011;26000;48.304;13.626;2023-04-15T10:51:36;4.07;;;3.67;;
40290;SDS011;26000;48.304;13.626;2023-04-15T10:54:40;4.20;;;3.70;;
40290;SDS011;26000;48.304;13.626;2023-04-15T10:59:29;3.88;;;3.08;;
40290;SDS011;26000;48.304;13.626;2023-04-15T11:01:56;3.53;;;3.22;;
40290;SDS011;26000;48.304;13.626;2023-04-15T11:09:58;3.40;;;3.05;;
40290;SDS011;26000;48.304;13.626;2023-04-15T11:12:32;3.55;;;3.00;;
40290;SDS011;26000;48.304;13.626;2023-04-15T11:15:23;3.38;;;3.08;;
40290;SDS011;26000;48.304;13.626;2023-04-15T11:18:07;3.83;;;3.47;;
40290;SDS011;26000;48.304;13.626;2023-04-15T11:20:38;3.72;;;2.88;;
40290;SDS011;26000;48.304;13.626;2023-04-15T11:23:11;3.05;;;2.75;;
40290;SDS011;26000;48.304;13.626;2023-04-15T11:25:38;3.55;;;3.00;;
40290;SDS011;26000;48.304;13.626;2023-04-15T11:28:04;5.82;;;3.40;;
40290;SDS011;26000;48.304;13.626;2023-04-15T11:30:32;3.13;;;2.78;;
40290;SDS011;26000;48.304;13.626;2023-04-15T11:32:59;3.20;;;2.90;;
40290;SDS011;26000;48.304;13.626;2023-04-15T11:35:26;3.15;;;2.63;;
40290;SDS011;26000;48.304;13.626;2023-04-15T11:37:52;4.20;;;3.05;;
40290;SDS011;26000;48.304;13.626;2023-04-15T11:40:22;3.35;;;3.05;;
40290;SDS011;26000;48.304;13.626;2023-04-15T11:45:53;4.13;;;3.72;;
40290;SDS011;26000;48.304;13.626;2023-04-15T11:48:28;6.15;;;4.40;;
40290;SDS011;26000;48.304;13.626;2023-04-15T11:51:01;6.70;;;4.32;;
40290;SDS011;26000;48.304;13.626;2023-04-15T11:56:10;14.68;;;9.75;;
40290;SDS011;26000;48.304;13.626;2023-04-15T11:58:41;5.38;;;4.45;;
40290;SDS011;26000;48.304;13.626;2023-04-15T12:01:07;5.82;;;4.70;;
40290;SDS011;26000;48.304;13.626;2023-04-15T12:03:41;5.38;;;3.97;;
40290;SDS011;26000;48.304;13.626;2023-04-15T12:11:31;3.92;;;3.53;;
40290;SDS011;26000;48.304;13.626;2023-04-15T12:16:35;3.33;;;3.03;;
40290;SDS011;26000;48.304;13.626;2023-04-15T12:19:08;3.38;;;2.92;;
40290;SDS011;26000;48.304;13.626;2023-04-15T12:21:36;3.38;;;3.08;;
40290;SDS011;26000;48.304;13.626;2023-04-15T12:24:03;2.92;;;2.65;;
40290;SDS011;26000;48.304;13.626;2023-04-15T12:26:40;3.55;;;2.90;;
40290;SDS011;26000;48.304;13.626;2023-04-15T12:29:09;2.92;;;2.70;;
40290;SDS011;26000;48.304;13.626;2023-04-15T12:31:36;5.10;;;4.10;;
40290;SDS011;26000;48.304;13.626;2023-04-15T12:34:10;3.35;;;3.00;;
40290;SDS011;26000;48.304;13.626;2023-04-15T12:36:38;5.22;;;3.83;;
40290;SDS011;26000;48.304;13.626;2023-04-15T12:39:04;18.85;;;9.60;;
40290;SDS011;26000;48.304;13.626;2023-04-15T12:41:31;9.23;;;5.18;;
40290;SDS011;26000;48.304;13.626;2023-04-15T12:43:57;3.03;;;2.67;;
40290;SDS011;26000;48.304;13.626;2023-04-15T12:46:25;4.38;;;2.75;;
40290;SDS011;26000;48.304;13.626;2023-04-15T12:48:51;2.85;;;2.50;;
40290;SDS011;26000;48.304;13.626;2023-04-15T12:51:17;4.78;;;3.45;;
40290;SDS011;26000;48.304;13.626;2023-04-15T12:53:45;4.80;;;2.80;;
40290;SDS011;26000;48.304;13.626;2023-04-15T12:56:11;4.40;;;3.08;;
40290;SDS011;26000;48.304;13.626;2023-04-15T12:58:37;3.30;;;3.00;;
40290;SDS011;26000;48.304;13.626;2023-04-15T13:01:03;3.20;;;2.90;;
40290;SDS011;26000;48.304;13.626;2023-04-15T13:03:28;3.00;;;2.70;;
40290;SDS011;26000;48.304;13.626;2023-04-15T13:05:54;2.95;;;2.70;;
40290;SDS011;26000;48.304;13.626;2023-04-15T13:08:21;5.05;;;4.00;;
40290;SDS011;26000;48.304;13.626;2023-04-15T13:10:47;3.47;;;2.90;;
40290;SDS011;26000;48.304;13.626;2023-04-15T13:13:12;3.13;;;2.85;;
40290;SDS011;26000;48.304;13.626;2023-04-15T13:15:38;2.88;;;2.67;;
40290;SDS011;26000;48.304;13.626;2023-04-15T13:20:31;3.25;;;2.95;;
40290;SDS011;26000;48.304;13.626;2023-04-15T13:22:56;3.20;;;2.90;;
40290;SDS011;26000;48.304;13.626;2023-04-15T13:25:22;3.20;;;2.90;;
40290;SDS011;26000;48.304;13.626;2023-04-15T13:27:48;2.88;;;2.58;;
40290;SDS011;26000;48.304;13.626;2023-04-15T13:30:14;3.22;;;2.60;;
40290;SDS011;26000;48.304;13.626;2023-04-15T13:32:39;4.15;;;2.75;;
40290;SDS011;26000;48.304;13.626;2023-04-15T13:35:05;3.15;;;2.85;;
40290;SDS011;26000;48.304;13.626;2023-04-15T13:37:31;3.05;;;2.78;;
40290;SDS011;26000;48.304;13.626;2023-04-15T13:39:56;2.88;;;2.63;;
40290;SDS011;26000;48.304;13.626;2023-04-15T13:42:22;2.70;;;2.50;;
40290;SDS011;26000;48.304;13.626;2023-04-15T13:44:48;3.17;;;2.65;;
40290;SDS011;26000;48.304;13.626;2023-04-15T13:47:15;3.20;;;2.90;;
40290;SDS011;26000;48.304;13.626;2023-04-15T13:49:42;3.08;;;2.78;;
40290;SDS011;26000;48.304;13.626;2023-04-15T13:52:08;2.90;;;2.60;;
40290;SDS011;26000;48.304;13.626;2023-04-15T13:54:33;3.83;;;2.95;;
40290;SDS011;26000;48.304;13.626;2023-04-15T13:56:59;4.03;;;3.13;;
40290;SDS011;26000;48.304;13.626;2023-04-15T13:59:25;3.20;;;2.55;;
40290;SDS011;26000;48.304;13.626;2023-04-15T14:01:51;3.10;;;2.80;;
40290;SDS011;26000;48.304;13.626;2023-04-15T14:04:17;3.17;;;2.88;;
40290;SDS011;26000;48.304;13.626;2023-04-15T14:06:42;3.13;;;2.83;;
40290;SDS011;26000;48.304;13.626;2023-04-15T14:09:08;3.05;;;2.75;;
40290;SDS011;26000;48.304;13.626;2023-04-15T14:11:34;3.97;;;3.03;;
40290;SDS011;26000;48.304;13.626;2023-04-15T14:14:02;4.45;;;3.35;;
40290;SDS011;26000;48.304;13.626;2023-04-15T14:16:27;10.77;;;7.47;;
40290;SDS011;26000;48.304;13.626;2023-04-15T14:18:53;6.75;;;4.78;;
40290;SDS011;26000;48.304;13.626;2023-04-15T14:21:19;4.20;;;3.25;;
40290;SDS011;26000;48.304;13.626;2023-04-15T14:23:45;4.38;;;3.42;;
40290;SDS011;26000;48.304;13.626;2023-04-15T14:26:10;4.53;;;3.90;;
40290;SDS011;26000;48.304;13.626;2023-04-15T14:28:37;4.85;;;4.20;;
40290;SDS011;26000;48.304;13.626;2023-04-15T14:31:03;4.47;;;4.07;;
40290;SDS011;26000;48.304;13.626;2023-04-15T14:33:28;5.30;;;4.28;;
40290;SDS011;26000;48.304;13.626;2023-04-15T14:35:54;5.50;;;4.10;;
40290;SDS011;26000;48.304;13.626;2023-04-15T14:38:20;5.13;;;4.45;;
40290;SDS011;26000;48.304;13.626;2023-04-15T14:40:46;4.15;;;3.75;;
40290;SDS011;26000;48.304;13.626;2023-04-15T14:43:12;4.78;;;4.13;;
40290;SDS011;26000;48.304;13.626;2023-04-15T14:45:37;4.32;;;3.92;;
40290;SDS011;26000;48.304;13.626;2023-04-15T14:48:03;4.47;;;4.00;;
40290;SDS011;26000;48.304;13.626;2023-04-15T14:50:30;4.53;;;4.13;;
40290;SDS011;26000;48.304;13.626;2023-04-15T14:52:56;4.63;;;3.95;;
40290;SDS011;26000;48.304;13.626;2023-04-15T14:55:22;4.47;;;3.90;;
40290;SDS011;26000;48.304;13.626;2023-04-15T14:57:48;5.88;;;4.20;;
40290;SDS011;26000;48.304;13.626;2023-04-15T15:00:14;5.20;;;4.47;;